createdAt,value
2023-04-28T00:01:51.965Z,100922.78
2023-04-28T00:04:18.775Z,100921.97
2023-04-28T00:06:46.254Z,100922.78
2023-04-28T00:09:12.646Z,100917.56
2023-04-28T00:11:38.967Z,100912.38
2023-04-28T00:14:05.930Z,100914.16
2023-04-28T00:16:32.342Z,100905.44
2023-04-28T00:18:58.725Z,100901.97
2023-04-28T00:21:25.089Z,100898.47
2023-04-28T00:23:51.648Z,100897.59
2023-04-28T00:26:17.996Z,100901.91
2023-04-28T00:28:44.351Z,100897.53
2023-04-28T00:31:12.515Z,100916.59
2023-04-28T00:33:39.832Z,100913.88
2023-04-28T00:36:06.786Z,100909.47
2023-04-28T00:38:33.324Z,100908.53
2023-04-28T00:40:59.718Z,100902.47
2023-04-28T00:43:26.071Z,100891.22
2023-04-28T00:45:52.757Z,100891.22
2023-04-28T00:48:19.202Z,100884.28
2023-04-28T00:50:45.886Z,100879.97
2023-04-28T00:53:12.698Z,100876.50
2023-04-28T00:55:39.191Z,100879.09
2023-04-28T00:58:06.264Z,100877.31
2023-04-28T01:00:33.708Z,100875.59
2023-04-28T01:03:00.234Z,100867.78
2023-04-28T01:05:26.770Z,100874.72
2023-04-28T01:07:53.313Z,100863.41
2023-04-28T01:10:19.871Z,100869.50
2023-04-28T01:12:46.269Z,100877.22
2023-04-28T01:15:16.837Z,100860.63
2023-04-28T01:17:43.311Z,100864.19
2023-04-28T01:20:10.421Z,100854.66
2023-04-28T01:22:36.784Z,100850.38
2023-04-28T01:25:04.022Z,100851.25
2023-04-28T01:27:30.570Z,100856.47
2023-04-28T01:29:58.359Z,100849.47
2023-04-28T01:32:24.728Z,100852.13
2023-04-28T01:34:51.948Z,100848.59
2023-04-28T01:37:18.324Z,100842.47
2023-04-28T01:39:44.735Z,100838.13
2023-04-28T01:42:11.301Z,100844.16
2023-04-28T01:44:37.663Z,100843.34
2023-04-28T01:47:04.146Z,100845.88
2023-04-28T01:49:30.905Z,100842.38
2023-04-28T01:51:57.248Z,100851.00
2023-04-28T01:54:23.613Z,100834.50
2023-04-28T01:56:50.137Z,100851.00
2023-04-28T01:59:16.491Z,100847.47
2023-04-28T02:01:42.857Z,100843.97
2023-04-28T02:04:09.492Z,100845.69
2023-04-28T02:06:36.036Z,100837.88
2023-04-28T02:09:02.405Z,100847.31
2023-04-28T02:11:28.958Z,100848.91
2023-04-28T02:13:55.974Z,100849.72
2023-04-28T02:16:22.349Z,100847.91
2023-04-28T02:18:48.992Z,100843.53
2023-04-28T02:21:15.379Z,100850.44
2023-04-28T02:23:41.787Z,100842.50
2023-04-28T02:26:08.201Z,100840.88
2023-04-28T02:28:34.620Z,100835.56
2023-04-28T02:31:08.664Z,100839.84
2023-04-28T02:33:35.725Z,100839.00
2023-04-28T02:36:03.029Z,100838.06
2023-04-28T02:38:29.418Z,100832.75
2023-04-28T02:41:06.472Z,100827.47
2023-04-28T02:43:32.938Z,100827.41
2023-04-28T02:45:59.355Z,100816.97
2023-04-28T02:48:25.844Z,100816.06
2023-04-28T02:50:53.008Z,100815.22
2023-04-28T02:53:19.863Z,100810.84
2023-04-28T02:55:46.467Z,100810.00
2023-04-28T02:58:13.008Z,100807.41
2023-04-28T03:00:39.407Z,100811.72
2023-04-28T03:03:05.847Z,100802.34
2023-04-28T03:05:32.943Z,100808.41
2023-04-28T03:07:59.683Z,100791.84
2023-04-28T03:10:26.220Z,100785.78
2023-04-28T03:12:52.567Z,100780.63
2023-04-28T03:15:18.895Z,100779.72
2023-04-28T03:17:45.641Z,100779.66
2023-04-28T03:20:12.841Z,100770.13
2023-04-28T03:22:39.176Z,100771.91
2023-04-28T03:25:05.900Z,100771.31
2023-04-28T03:27:32.315Z,100767.13
2023-04-28T03:29:58.680Z,100761.00
2023-04-28T03:32:25.118Z,100761.97
2023-04-28T03:34:51.490Z,100757.63
2023-04-28T03:37:17.849Z,100746.28
2023-04-28T03:39:44.297Z,100747.94
2023-04-28T03:42:10.810Z,100737.50
2023-04-28T03:44:37.213Z,100744.44
2023-04-28T03:47:03.657Z,100733.94
2023-04-28T03:49:30.036Z,100727.06
2023-04-28T03:51:56.453Z,100731.41
2023-04-28T03:54:22.828Z,100727.13
2023-04-28T03:56:49.175Z,100728.78
2023-04-28T03:59:15.730Z,100728.78
2023-04-28T04:01:42.297Z,100723.59
2023-04-28T04:04:08.950Z,100727.19
2023-04-28T04:06:35.689Z,100729.06
2023-04-28T04:09:02.231Z,100723.00
2023-04-28T04:11:28.593Z,100716.94
2023-04-28T04:13:54.937Z,100722.13
2023-04-28T04:16:22.811Z,100719.63
2023-04-28T04:18:49.328Z,100717.03
2023-04-28T04:21:15.869Z,100712.81
2023-04-28T04:23:42.420Z,100710.22
2023-04-28T04:26:08.763Z,100710.19
2023-04-28T04:28:35.103Z,100718.81
2023-04-28T04:31:02.751Z,100704.19
2023-04-28T04:33:29.576Z,100703.19
2023-04-28T04:35:56.565Z,100707.56
2023-04-28T04:38:23.116Z,100703.22
2023-04-28T04:40:49.500Z,100691.84
2023-04-28T04:43:15.881Z,100694.44
2023-04-28T04:45:42.442Z,100690.13
2023-04-28T04:48:09.472Z,100694.56
2023-04-28T04:50:36.133Z,100686.63
2023-04-28T04:53:02.472Z,100685.72
2023-04-28T04:55:28.847Z,100681.31
2023-04-28T04:57:55.422Z,100687.34
2023-04-28T05:00:21.856Z,100682.97
2023-04-28T05:02:48.365Z,100670.66
2023-04-28T05:05:21.230Z,100666.22
2023-04-28T05:07:48.571Z,100674.03
2023-04-28T05:10:15.166Z,100669.59
2023-04-28T05:12:41.525Z,100678.06
2023-04-28T05:15:08.217Z,100660.47
2023-04-28T05:17:34.799Z,100668.16
2023-04-28T05:20:01.201Z,100672.34
2023-04-28T05:22:27.580Z,100666.97
2023-04-28T05:24:53.944Z,100659.81
2023-04-28T05:27:20.470Z,100670.03
2023-04-28T05:29:46.931Z,100666.41
2023-04-28T05:32:13.420Z,100660.94
2023-04-28T05:34:39.948Z,100670.28
2023-04-28T05:37:06.328Z,100658.69
2023-04-28T05:39:32.715Z,100660.22
2023-04-28T05:41:59.263Z,100664.44
2023-04-28T05:44:25.668Z,100654.66
2023-04-28T05:46:52.455Z,100659.84
2023-04-28T05:49:18.939Z,100655.41
2023-04-28T05:51:45.435Z,100664.00
2023-04-28T05:54:11.989Z,100666.50
2023-04-28T05:56:38.347Z,100664.56
2023-04-28T05:59:04.935Z,100656.59
2023-04-28T06:01:32.260Z,100645.06
2023-04-28T06:03:58.948Z,100638.06
2023-04-28T06:06:25.983Z,100642.22
2023-04-28T06:08:52.587Z,100646.47
2023-04-28T06:11:22.158Z,100646.31
2023-04-28T06:13:50.107Z,100654.09
2023-04-28T06:16:17.142Z,100648.75
2023-04-28T06:18:43.646Z,100641.63
2023-04-28T06:21:10.023Z,100643.28
2023-04-28T06:23:37.599Z,100624.78
2023-04-28T06:26:04.032Z,100635.13
2023-04-28T06:28:30.687Z,100640.22
2023-04-28T06:30:57.374Z,100640.06
2023-04-28T06:33:23.716Z,100636.56
2023-04-28T06:35:50.076Z,100637.25
2023-04-28T06:38:16.621Z,100635.19
2023-04-28T06:40:42.991Z,100622.81
2023-04-28T06:43:09.313Z,100620.88
2023-04-28T06:45:36.025Z,100613.69
2023-04-28T06:48:02.470Z,100618.78
2023-04-28T06:50:29.058Z,100611.66
2023-04-28T06:52:55.435Z,100614.13
2023-04-28T06:55:22.068Z,100606.88
2023-04-28T06:57:48.400Z,100605.69
2023-04-28T07:00:15.353Z,100605.34
2023-04-28T07:02:42.049Z,100603.47
2023-04-28T07:05:08.839Z,100607.72
2023-04-28T07:07:36.171Z,100614.69
2023-04-28T07:10:02.631Z,100609.34
2023-04-28T07:12:28.982Z,100606.56
2023-04-28T07:14:56.120Z,100604.75
2023-04-28T07:17:22.609Z,100601.13
2023-04-28T07:19:50.885Z,100592.13
2023-04-28T07:22:17.664Z,100601.59
2023-04-28T07:24:44.529Z,100595.13
2023-04-28T07:27:10.903Z,100597.75
2023-04-28T07:29:38.040Z,100595.88
2023-04-28T07:32:06.886Z,100597.56
2023-04-28T07:34:35.611Z,100588.38
2023-04-28T07:37:02.834Z,100589.81
2023-04-28T07:39:29.399Z,100593.03
2023-04-28T07:41:57.935Z,100593.25
2023-04-28T07:44:24.413Z,100591.34
2023-04-28T07:46:52.262Z,100592.00
2023-04-28T07:49:18.775Z,100589.00
2023-04-28T07:51:45.164Z,100596.78
2023-04-28T07:54:11.895Z,100587.69
2023-04-28T07:56:38.365Z,100594.53
2023-04-28T07:59:04.908Z,100588.91
2023-04-28T08:01:31.279Z,100594.13
2023-04-28T08:03:57.879Z,100586.94
2023-04-28T08:06:24.625Z,100587.75
2023-04-28T08:08:50.981Z,100580.56
2023-04-28T08:11:17.329Z,100581.44
2023-04-28T08:13:43.692Z,100578.63
2023-04-28T08:16:10.072Z,100583.56
2023-04-28T08:18:36.436Z,100580.63
2023-04-28T08:21:02.910Z,100581.28
2023-04-28T08:23:31.779Z,100578.41
2023-04-28T08:25:58.490Z,100584.28
2023-04-28T08:28:24.876Z,100591.41
2023-04-28T08:30:51.268Z,100579.13
2023-04-28T08:33:17.654Z,100587.84
2023-04-28T08:35:44.304Z,100588.78
2023-04-28T08:38:14.055Z,100588.53
2023-04-28T08:40:42.624Z,100587.72
2023-04-28T08:43:10.813Z,100586.94
2023-04-28T08:45:44.812Z,100589.47
2023-04-28T08:48:29.123Z,100584.59
2023-04-28T08:50:55.494Z,100583.59
2023-04-28T08:53:25.865Z,100578.97
2023-04-28T08:55:54.779Z,100578.72
2023-04-28T08:58:22.838Z,100579.47
2023-04-28T09:00:49.519Z,100562.56
2023-04-28T09:03:16.157Z,100563.59
2023-04-28T09:05:43.358Z,100558.97
2023-04-28T09:08:11.766Z,100565.72
2023-04-28T09:10:38.403Z,100548.72
2023-04-28T09:13:05.214Z,100549.22
2023-04-28T09:15:34.506Z,100548.63
2023-04-28T09:18:02.335Z,100550.69
2023-04-28T09:20:30.035Z,100543.66
2023-04-28T09:22:57.110Z,100535.19
2023-04-28T09:25:23.852Z,100531.03
2023-04-28T09:27:50.436Z,100523.56
2023-04-28T09:30:16.849Z,100525.28
2023-04-28T09:32:43.693Z,100532.16
2023-04-28T09:35:10.139Z,100527.59
2023-04-28T09:37:37.527Z,100531.88
2023-04-28T09:40:08.581Z,100534.47
2023-04-28T09:42:38.822Z,100530.28
2023-04-28T09:45:12.463Z,100521.47
2023-04-28T09:47:40.897Z,100519.50
2023-04-28T09:50:12.726Z,100517.75
2023-04-28T09:52:39.263Z,100514.22
2023-04-28T09:55:08.566Z,100513.16
2023-04-28T09:57:35.580Z,100509.91
2023-04-28T10:00:02.526Z,100508.09
2023-04-28T10:04:58.553Z,100500.25
2023-04-28T10:07:25.875Z,100511.25
2023-04-28T10:09:52.382Z,100496.78
2023-04-28T10:12:19.403Z,100495.75
2023-04-28T10:14:45.903Z,100501.00
2023-04-28T10:17:15.822Z,100487.81
2023-04-28T10:19:42.879Z,100491.19
2023-04-28T10:22:29.498Z,100487.81
2023-04-28T10:25:11.904Z,100487.47
2023-04-28T10:27:45.988Z,100487.47
2023-04-28T10:32:49.894Z,100484.81
2023-04-28T10:35:25.472Z,100478.75
2023-04-28T10:38:08.294Z,100478.47
2023-04-28T10:40:34.827Z,100472.41
2023-04-28T10:43:01.467Z,100473.88
2023-04-28T10:45:58.041Z,100470.34
2023-04-28T10:48:33.608Z,100473.88
2023-04-28T10:51:06.557Z,100471.22
2023-04-28T10:53:45.183Z,100460.56
2023-04-28T10:56:11.831Z,100457.88
2023-04-28T10:58:42.516Z,100453.53
2023-04-28T11:01:21.392Z,100448.53
2023-04-28T11:03:48.854Z,100437.75
2023-04-28T11:06:28.640Z,100441.69
2023-04-28T11:08:57.364Z,100446.63
2023-04-28T11:11:25.743Z,100445.41
2023-04-28T11:13:53.526Z,100450.56
2023-04-28T11:16:24.317Z,100448.94
2023-04-28T11:18:56.837Z,100449.06
2023-04-28T11:21:24.066Z,100457.84
2023-04-28T11:23:50.462Z,100447.94
2023-04-28T11:26:17.237Z,100447.00
2023-04-28T11:28:56.879Z,100446.88
2023-04-28T11:31:24.527Z,100437.06
2023-04-28T11:34:04.836Z,100439.72
2023-04-28T11:36:33.545Z,100437.56
2023-04-28T11:39:00.059Z,100437.31
2023-04-28T11:41:26.509Z,100439.72
2023-04-28T11:43:53.155Z,100443.28
2023-04-28T11:46:21.784Z,100438.00
2023-04-28T11:48:48.619Z,100433.88
2023-04-28T11:51:34.650Z,100438.66
2023-04-28T11:54:01.617Z,100441.28
2023-04-28T11:56:28.882Z,100435.72
2023-04-28T11:59:08.982Z,100433.00
2023-04-28T12:01:44.190Z,100420.69
2023-04-28T12:04:10.848Z,100417.72
2023-04-28T12:06:37.579Z,100422.94
2023-04-28T12:09:15.581Z,100419.75
2023-04-28T12:11:53.556Z,100407.34
2023-04-28T12:14:21.005Z,100395.28
2023-04-28T12:16:48.482Z,100404.47
2023-04-28T12:19:15.968Z,100399.06
2023-04-28T12:21:42.686Z,100403.34
2023-04-28T12:24:20.189Z,100399.81
2023-04-28T12:26:48.043Z,100395.34
2023-04-28T12:29:39.544Z,100393.47
2023-04-28T12:32:07.200Z,100396.03
2023-04-28T12:34:33.585Z,100397.03
2023-04-28T12:37:01.526Z,100386.50
2023-04-28T12:39:28.387Z,100386.63
2023-04-28T12:41:59.302Z,100383.34
2023-04-28T12:44:27.953Z,100390.69
2023-04-28T12:46:55.059Z,100385.78
2023-04-28T12:49:21.659Z,100381.44
2023-04-28T12:51:47.986Z,100390.72
2023-04-28T12:54:14.477Z,100389.44
2023-04-28T12:56:40.816Z,100381.00
2023-04-28T12:59:07.137Z,100377.88
2023-04-28T13:01:33.879Z,100379.44
2023-04-28T13:04:00.545Z,100373.34
2023-04-28T13:06:27.888Z,100369.94
2023-04-28T13:08:54.300Z,100366.66
2023-04-28T13:11:23.272Z,100363.22
2023-04-28T13:13:49.733Z,100366.53
2023-04-28T13:16:16.183Z,100361.53
2023-04-28T13:18:42.621Z,100359.94
2023-04-28T13:21:08.964Z,100353.63
2023-04-28T13:23:35.365Z,100345.94
2023-04-28T13:26:01.778Z,100321.97
2023-04-28T13:28:28.282Z,100314.06
2023-04-28T13:30:54.674Z,100240.78
2023-04-28T13:33:21.399Z,100241.03
2023-04-28T13:35:47.740Z,100218.44
2023-04-28T13:38:14.178Z,100252.63
2023-04-28T13:40:42.269Z,100229.09
2023-04-28T13:43:08.621Z,100234.06
2023-04-28T13:45:35.269Z,100220.38
2023-04-28T13:48:03.219Z,100246.69
2023-04-28T13:50:29.691Z,100208.81
2023-04-28T13:52:56.229Z,100189.13
2023-04-28T13:55:28.148Z,100159.63
2023-04-28T13:57:55.203Z,100170.31
2023-04-28T14:00:22.479Z,100166.91
2023-04-28T14:02:50.608Z,100167.53
2023-04-28T14:05:17.836Z,100202.47
2023-04-28T14:07:44.559Z,100213.41
2023-04-28T14:10:11.349Z,100208.97
2023-04-28T14:12:38.224Z,100226.06
2023-04-28T14:15:06.132Z,100227.75
2023-04-28T14:17:34.665Z,100234.28
2023-04-28T14:20:01.722Z,100232.91
2023-04-28T14:22:28.524Z,100256.38
2023-04-28T14:24:54.932Z,100251.22
2023-04-28T14:27:21.874Z,100254.34
2023-04-28T14:29:48.560Z,100241.59
2023-04-28T14:32:16.403Z,100249.53
2023-04-28T14:34:43.019Z,100241.13
2023-04-28T14:37:09.496Z,100230.72
2023-04-28T14:39:37.495Z,100236.94
2023-04-28T14:42:03.915Z,100229.31
2023-04-28T14:44:30.486Z,100230.34
2023-04-28T14:46:56.838Z,100226.06
2023-04-28T14:49:23.701Z,100226.19
2023-04-28T14:51:50.128Z,100225.13
2023-04-28T14:54:16.720Z,100215.66
2023-04-28T14:56:43.073Z,100216.50
2023-04-28T14:59:10.496Z,100219.16
2023-04-28T15:01:37.590Z,100219.34
2023-04-28T15:04:04.862Z,100211.75
2023-04-28T15:06:32.802Z,100210.81
2023-04-28T15:08:59.158Z,100210.69
2023-04-28T15:11:25.922Z,100201.97
2023-04-28T15:13:52.327Z,100195.47
2023-04-28T15:16:19.153Z,100182.34
2023-04-28T15:18:46.085Z,100184.00
2023-04-28T15:21:12.582Z,100198.13
2023-04-28T15:23:38.905Z,100186.00
2023-04-28T15:26:05.378Z,100170.78
2023-04-28T15:28:31.781Z,100163.03
2023-04-28T15:30:58.116Z,100165.66
2023-04-28T15:33:24.670Z,100160.22
2023-04-28T15:35:51.259Z,100156.63
2023-04-28T15:38:18.095Z,100162.09
2023-04-28T15:40:45.189Z,100147.16
2023-04-28T15:43:13.243Z,100149.88
2023-04-28T15:45:39.666Z,100147.16
2023-04-28T15:48:06.541Z,100147.31
2023-04-28T15:50:33.263Z,100138.09
2023-04-28T15:53:00.061Z,100128.63
2023-04-28T15:55:26.436Z,100129.72
2023-04-28T15:57:52.989Z,100118.53
2023-04-28T16:00:19.501Z,100118.53
2023-04-28T16:02:46.477Z,100099.94
2023-04-28T16:05:13.358Z,100092.19
2023-04-28T16:07:42.913Z,100072.47
2023-04-28T16:10:10.818Z,100072.00
2023-04-28T16:12:38.583Z,100063.31
2023-04-28T16:15:06.018Z,100046.22
2023-04-28T16:17:33.912Z,100018.19
2023-04-28T16:20:00.389Z,100009.66
2023-04-28T16:22:28.048Z,99985.31
2023-04-28T16:24:54.790Z,99962.75
2023-04-28T16:27:21.358Z,99949.75
2023-04-28T16:29:47.729Z,99920.06
2023-04-28T16:32:14.273Z,99901.50
2023-04-28T16:34:41.326Z,99891.56
2023-04-28T16:37:08.009Z,99888.63
2023-04-28T16:39:34.439Z,99871.13
2023-04-28T16:42:01.298Z,99848.91
2023-04-28T16:44:31.128Z,99846.19
2023-04-28T16:46:58.114Z,99839.22
2023-04-28T16:49:24.923Z,99854.09
2023-04-28T16:52:06.991Z,99834.88
2023-04-28T16:54:33.746Z,99784.69
2023-04-28T16:57:00.790Z,99772.44
2023-04-28T16:59:29.836Z,99778.34
2023-04-28T17:01:59.820Z,99753.41
2023-04-28T17:04:27.056Z,99756.78
2023-04-28T17:06:53.812Z,99737.69
2023-04-28T17:09:23.555Z,99735.13
2023-04-28T17:11:50.027Z,99722.44
2023-04-28T17:14:16.404Z,99699.66
2023-04-28T17:16:45.708Z,99682.94
2023-04-28T17:19:12.215Z,99694.22
2023-04-28T17:21:38.814Z,99671.66
2023-04-28T17:24:05.406Z,99642.22
2023-04-28T17:26:31.833Z,99634.56
2023-04-28T17:28:58.775Z,99636.38
2023-04-28T17:31:26.160Z,99589.88
2023-04-28T17:33:53.311Z,99427.63
2023-04-28T17:36:20.085Z,99079.44
2023-04-28T17:38:46.644Z,98652.03
2023-04-28T17:41:13.245Z,98199.44
2023-04-28T17:43:39.653Z,97817.31
2023-04-28T17:46:06.086Z,96843.16
2023-04-28T17:48:32.676Z,96097.88
2023-04-28T17:50:59.337Z,95337.44
2023-04-28T17:53:25.824Z,94011.72
2023-04-28T17:55:52.288Z,92932.19
2023-04-28T17:58:18.658Z,91608.50
2023-04-28T18:00:45.044Z,89895.16
2023-04-28T18:03:11.411Z,89226.03
2023-04-28T18:05:37.890Z,89126.75
2023-04-28T18:08:04.531Z,89049.41
2023-04-28T18:10:31.585Z,88906.94
2023-04-28T18:12:58.975Z,88678.06
2023-04-28T18:15:25.841Z,88326.91
2023-04-28T18:17:52.540Z,88167.06
2023-04-28T18:20:19.042Z,87950.31
2023-04-28T18:22:45.574Z,87778.88
2023-04-28T18:25:13.354Z,87572.25
2023-04-28T18:27:39.984Z,87412.06
2023-04-28T18:30:07.987Z,87284.47
2023-04-28T18:32:35.023Z,87157.63
2023-04-28T18:35:01.415Z,87083.53
2023-04-28T18:37:28.323Z,87019.94
2023-04-28T18:39:56.733Z,86992.22
2023-04-28T18:42:23.724Z,87075.34
2023-04-28T18:44:55.470Z,87219.75
2023-04-28T18:47:21.875Z,87345.50
2023-04-28T18:49:48.789Z,87382.91
2023-04-28T18:52:15.432Z,87459.97
2023-04-28T18:54:42.314Z,87482.41
2023-04-28T18:57:09.156Z,87513.47
2023-04-28T18:59:35.542Z,87575.91
2023-04-28T19:02:02.406Z,87718.84
2023-04-28T19:04:29.362Z,87758.13
2023-04-28T19:06:55.788Z,87724.09
2023-04-28T19:09:22.208Z,87778.66
2023-04-28T19:11:49.076Z,87792.13
2023-04-28T19:14:15.482Z,87686.63
2023-04-28T19:16:42.243Z,87685.88
2023-04-28T19:19:09.665Z,87638.00
2023-04-28T19:21:43.119Z,87649.22
2023-04-28T19:24:09.566Z,86983.47
2023-04-28T19:26:35.979Z,87472.66
2023-04-28T19:29:02.531Z,87535.47
2023-04-28T19:31:28.928Z,87551.19
2023-04-28T19:33:55.433Z,87602.06
2023-04-28T19:36:22.341Z,87540.34
2023-04-28T19:38:48.682Z,87452.44
2023-04-28T19:41:15.040Z,87352.59
2023-04-28T19:43:41.437Z,87044.13
2023-04-28T19:46:08.263Z,86959.59
2023-04-28T19:48:34.680Z,86921.88
2023-04-28T19:51:01.315Z,86874.41
2023-04-28T19:53:27.672Z,86871.41
2023-04-28T19:55:54.700Z,86922.28
2023-04-28T19:58:21.342Z,86888.63
2023-04-28T20:00:47.938Z,86788.09
2023-04-28T20:03:14.826Z,86723.81
2023-04-28T20:05:42.235Z,86709.25
2023-04-28T20:08:08.583Z,86513.34
2023-04-28T20:10:34.956Z,86500.63
2023-04-28T20:13:01.854Z,86458.38
2023-04-28T20:15:28.212Z,86458.75
2023-04-28T20:17:55.240Z,86520.41
2023-04-28T20:20:21.805Z,86605.28
2023-04-28T20:22:50.522Z,86623.94
2023-04-28T20:25:17.484Z,86549.88
2023-04-28T20:27:45.621Z,86627.25
2023-04-28T20:30:12.188Z,86705.78
2023-04-28T20:32:38.663Z,86793.28
2023-04-28T20:35:06.199Z,86877.38
2023-04-28T20:37:33.231Z,86982.06
2023-04-28T20:39:59.577Z,87069.56
2023-04-28T20:42:25.973Z,87121.16
2023-04-28T20:44:52.574Z,87167.91
2023-04-28T20:47:19.180Z,87225.47
2023-04-28T20:49:46.833Z,87277.47
2023-04-28T20:52:13.172Z,87353.75
2023-04-28T20:54:40.494Z,87422.19
2023-04-28T20:57:09.175Z,87508.97
2023-04-28T20:59:35.675Z,87638.75
2023-04-28T21:02:02.118Z,87736.41
2023-04-28T21:04:28.656Z,87828.06
2023-04-28T21:06:55.426Z,87950.00
2023-04-28T21:09:24.767Z,88079.81
2023-04-28T21:11:51.138Z,88183.47
2023-04-28T21:14:17.484Z,88259.06
2023-04-28T21:16:43.906Z,88309.97
2023-04-28T21:19:10.817Z,88315.56
2023-04-28T21:21:37.593Z,88309.25
2023-04-28T21:24:05.717Z,88323.44
2023-04-28T21:26:32.122Z,88326.44
2023-04-28T21:28:58.480Z,88338.38
2023-04-28T21:31:25.332Z,88374.25
2023-04-28T21:33:51.840Z,88373.16
2023-04-28T21:36:18.236Z,88360.47
2023-04-28T21:38:44.678Z,88304.34
2023-04-28T21:41:12.968Z,88238.47
2023-04-28T21:43:39.442Z,88178.22
2023-04-28T21:46:05.857Z,88106.00
2023-04-28T21:48:32.270Z,88052.53
2023-04-28T21:50:59.518Z,88022.22
2023-04-28T21:53:25.856Z,87997.53
2023-04-28T21:55:52.346Z,88002.81
2023-04-28T21:58:18.706Z,88009.91
2023-04-28T22:00:47.775Z,88027.88
2023-04-28T22:03:15.328Z,88056.34
2023-04-28T22:05:42.160Z,88068.31
2023-04-28T22:08:08.919Z,88079.91
2023-04-28T22:10:35.657Z,88099.75
2023-04-28T22:13:02.471Z,88122.91
2023-04-28T22:15:28.893Z,88136.81
2023-04-28T22:17:55.386Z,88148.81
2023-04-28T22:20:21.963Z,88135.31
2023-04-28T22:22:48.306Z,88075.06
2023-04-28T22:25:14.712Z,88010.69
2023-04-28T22:27:41.122Z,87938.88
2023-04-28T22:30:08.443Z,87877.53
2023-04-28T22:32:34.999Z,87791.13
2023-04-28T22:35:01.521Z,87764.56
2023-04-28T22:37:27.923Z,87702.06
2023-04-28T22:39:54.484Z,87686.00
2023-04-28T22:42:20.846Z,87656.06
2023-04-28T22:44:47.212Z,87654.56
2023-04-28T22:47:13.768Z,87520.59
2023-04-28T22:49:40.348Z,87538.56
2023-04-28T22:52:06.731Z,87597.31
2023-04-28T22:54:33.101Z,87590.97
2023-04-28T22:56:59.444Z,87598.09
2023-04-28T22:59:26.498Z,87598.44
2023-04-28T23:01:54.881Z,87593.22
2023-04-28T23:04:21.677Z,87582.00
2023-04-28T23:06:48.366Z,87546.06
2023-04-28T23:09:14.904Z,87544.56
2023-04-28T23:11:41.454Z,87543.81
2023-04-28T23:14:07.796Z,87536.31
2023-04-28T23:16:34.497Z,87506.38
2023-04-28T23:19:00.930Z,87464.44
2023-04-28T23:21:28.648Z,87300.44
2023-04-28T23:23:55.258Z,87245.41
2023-04-28T23:26:21.755Z,87221.84
2023-04-28T23:28:48.463Z,87163.03
2023-04-28T23:31:15.123Z,87081.81
2023-04-28T23:33:41.507Z,86869.16
2023-04-28T23:36:08.923Z,86789.81
2023-04-28T23:38:35.492Z,86654.66
2023-04-28T23:41:01.850Z,86516.53
2023-04-28T23:43:28.403Z,86497.13
2023-04-28T23:45:55.009Z,86489.59
2023-04-28T23:48:22.354Z,86475.38
2023-04-28T23:50:49.097Z,86460.78
2023-04-28T23:53:15.495Z,86438.69
2023-04-28T23:55:41.834Z,86445.41
2023-04-28T23:58:08.175Z,86481.69
